sensor_id;sensor_type;location;lat;lon;timestamp;P1;durP1;ratioP1;P2;durP2;ratioP2
34505;SDS011;20748;42.632;23.198;2022-09-09T00:01:14;4.40;;;3.15;;
34505;SDS011;20748;42.632;23.198;2022-09-09T00:03:57;4.60;;;2.75;;
34505;SDS011;20748;42.632;23.198;2022-09-09T00:06:34;5.28;;;2.60;;
34505;SDS011;20748;42.632;23.198;2022-09-09T00:09:18;3.80;;;2.53;;
34505;SDS011;20748;42.632;23.198;2022-09-09T00:11:52;5.00;;;3.28;;
34505;SDS011;20748;42.632;23.198;2022-09-09T00:14:34;4.05;;;2.53;;
34505;SDS011;20748;42.632;23.198;2022-09-09T00:17:12;4.55;;;3.05;;
34505;SDS011;20748;42.632;23.198;2022-09-09T00:20:01;2.35;;;1.90;;
34505;SDS011;20748;42.632;23.198;2022-09-09T00:22:44;5.40;;;3.03;;
34505;SDS011;20748;42.632;23.198;2022-09-09T00:25:24;5.07;;;3.22;;
34505;SDS011;20748;42.632;23.198;2022-09-09T00:28:07;5.78;;;3.08;;
34505;SDS011;20748;42.632;23.198;2022-09-09T00:30:45;4.40;;;2.80;;
34505;SDS011;20748;42.632;23.198;2022-09-09T00:33:20;6.30;;;3.58;;
34505;SDS011;20748;42.632;23.198;2022-09-09T00:35:56;4.85;;;2.47;;
34505;SDS011;20748;42.632;23.198;2022-09-09T00:38:32;4.90;;;3.00;;
34505;SDS011;20748;42.632;23.198;2022-09-09T00:41:07;5.97;;;3.15;;
34505;SDS011;20748;42.632;23.198;2022-09-09T00:46:48;9.75;;;2.60;;
34505;SDS011;20748;42.632;23.198;2022-09-09T00:49:35;6.40;;;3.45;;
34505;SDS011;20748;42.632;23.198;2022-09-09T00:52:21;5.15;;;3.40;;
34505;SDS011;20748;42.632;23.198;2022-09-09T00:55:04;8.00;;;3.83;;
34505;SDS011;20748;42.632;23.198;2022-09-09T00:57:43;27.40;;;12.77;;
34505;SDS011;20748;42.632;23.198;2022-09-09T01:00:19;22.15;;;12.60;;
34505;SDS011;20748;42.632;23.198;2022-09-09T01:03:01;10.05;;;5.95;;
34505;SDS011;20748;42.632;23.198;2022-09-09T01:05:43;8.18;;;4.28;;
34505;SDS011;20748;42.632;23.198;2022-09-09T01:08:23;6.55;;;4.28;;
34505;SDS011;20748;42.632;23.198;2022-09-09T01:11:15;8.18;;;4.63;;
34505;SDS011;20748;42.632;23.198;2022-09-09T01:16:32;3.58;;;2.75;;
34505;SDS011;20748;42.632;23.198;2022-09-09T01:19:05;4.57;;;3.20;;
34505;SDS011;20748;42.632;23.198;2022-09-09T01:21:43;5.30;;;2.85;;
34505;SDS011;20748;42.632;23.198;2022-09-09T01:24:24;5.88;;;3.35;;
34505;SDS011;20748;42.632;23.198;2022-09-09T01:27:33;4.32;;;3.00;;
34505;SDS011;20748;42.632;23.198;2022-09-09T01:30:09;5.13;;;3.05;;
34505;SDS011;20748;42.632;23.198;2022-09-09T01:32:43;5.03;;;3.50;;
34505;SDS011;20748;42.632;23.198;2022-09-09T01:35:22;5.78;;;3.83;;
34505;SDS011;20748;42.632;23.198;2022-09-09T01:38:06;5.47;;;3.05;;
34505;SDS011;20748;42.632;23.198;2022-09-09T01:40:39;4.30;;;3.25;;
34505;SDS011;20748;42.632;23.198;2022-09-09T01:43:12;4.85;;;3.45;;
34505;SDS011;20748;42.632;23.198;2022-09-09T01:45:45;5.35;;;2.67;;
34505;SDS011;20748;42.632;23.198;2022-09-09T01:48:21;4.82;;;2.47;;
34505;SDS011;20748;42.632;23.198;2022-09-09T01:51:07;4.78;;;2.70;;
34505;SDS011;20748;42.632;23.198;2022-09-09T01:53:40;3.53;;;2.72;;
34505;SDS011;20748;42.632;23.198;2022-09-09T01:56:22;4.55;;;2.92;;
34505;SDS011;20748;42.632;23.198;2022-09-09T02:01:46;5.63;;;3.45;;
34505;SDS011;20748;42.632;23.198;2022-09-09T02:04:35;6.03;;;3.70;;
34505;SDS011;20748;42.632;23.198;2022-09-09T02:07:21;5.35;;;3.53;;
34505;SDS011;20748;42.632;23.198;2022-09-09T02:10:05;4.20;;;2.45;;
34505;SDS011;20748;42.632;23.198;2022-09-09T02:12:47;4.97;;;3.30;;
34505;SDS011;20748;42.632;23.198;2022-09-09T02:15:23;4.47;;;3.58;;
34505;SDS011;20748;42.632;23.198;2022-09-09T02:18:02;3.72;;;2.75;;
34505;SDS011;20748;42.632;23.198;2022-09-09T02:20:40;4.28;;;3.00;;
34505;SDS011;20748;42.632;23.198;2022-09-09T02:23:15;5.90;;;3.42;;
34505;SDS011;20748;42.632;23.198;2022-09-09T02:25:51;3.58;;;2.92;;
34505;SDS011;20748;42.632;23.198;2022-09-09T02:28:28;5.45;;;3.28;;
34505;SDS011;20748;42.632;23.198;2022-09-09T02:31:04;5.38;;;2.90;;
34505;SDS011;20748;42.632;23.198;2022-09-09T02:33:43;5.55;;;2.97;;
34505;SDS011;20748;42.632;23.198;2022-09-09T02:36:19;3.40;;;2.63;;
34505;SDS011;20748;42.632;23.198;2022-09-09T02:38:55;5.95;;;3.47;;
34505;SDS011;20748;42.632;23.198;2022-09-09T02:41:33;4.45;;;2.58;;
34505;SDS011;20748;42.632;23.198;2022-09-09T02:44:09;5.07;;;3.22;;
34505;SDS011;20748;42.632;23.198;2022-09-09T02:46:51;4.45;;;2.88;;
34505;SDS011;20748;42.632;23.198;2022-09-09T02:49:40;4.88;;;3.22;;
34505;SDS011;20748;42.632;23.198;2022-09-09T02:52:26;4.22;;;2.95;;
34505;SDS011;20748;42.632;23.198;2022-09-09T02:55:06;3.85;;;2.63;;
34505;SDS011;20748;42.632;23.198;2022-09-09T02:57:45;4.82;;;2.90;;
34505;SDS011;20748;42.632;23.198;2022-09-09T03:00:23;4.30;;;2.97;;
34505;SDS011;20748;42.632;23.198;2022-09-09T03:02:57;5.00;;;3.30;;
34505;SDS011;20748;42.632;23.198;2022-09-09T03:05:30;4.38;;;2.47;;
34505;SDS011;20748;42.632;23.198;2022-09-09T03:08:03;5.95;;;3.35;;
34505;SDS011;20748;42.632;23.198;2022-09-09T03:10:37;4.35;;;3.17;;
34505;SDS011;20748;42.632;23.198;2022-09-09T03:13:09;4.25;;;2.38;;
34505;SDS011;20748;42.632;23.198;2022-09-09T03:15:44;5.15;;;2.90;;
34505;SDS011;20748;42.632;23.198;2022-09-09T03:18:21;4.68;;;2.65;;
34505;SDS011;20748;42.632;23.198;2022-09-09T03:20:57;5.43;;;2.65;;
34505;SDS011;20748;42.632;23.198;2022-09-09T03:23:31;5.60;;;2.47;;
34505;SDS011;20748;42.632;23.198;2022-09-09T03:26:07;4.57;;;2.55;;
34505;SDS011;20748;42.632;23.198;2022-09-09T03:28:45;5.13;;;2.45;;
34505;SDS011;20748;42.632;23.198;2022-09-09T03:31:21;4.25;;;2.85;;
34505;SDS011;20748;42.632;23.198;2022-09-09T03:33:55;4.68;;;2.53;;
34505;SDS011;20748;42.632;23.198;2022-09-09T03:36:30;3.90;;;2.10;;
34505;SDS011;20748;42.632;23.198;2022-09-09T03:39:04;4.00;;;2.50;;
34505;SDS011;20748;42.632;23.198;2022-09-09T03:41:36;3.92;;;2.25;;
34505;SDS011;20748;42.632;23.198;2022-09-09T03:44:10;3.33;;;2.10;;
34505;SDS011;20748;42.632;23.198;2022-09-09T03:46:45;4.47;;;2.33;;
34505;SDS011;20748;42.632;23.198;2022-09-09T03:49:19;5.35;;;3.15;;
34505;SDS011;20748;42.632;23.198;2022-09-09T03:51:52;4.38;;;2.58;;
34505;SDS011;20748;42.632;23.198;2022-09-09T03:54:24;6.00;;;3.28;;
34505;SDS011;20748;42.632;23.198;2022-09-09T03:56:57;5.32;;;3.05;;
34505;SDS011;20748;42.632;23.198;2022-09-09T03:59:30;5.20;;;3.95;;
34505;SDS011;20748;42.632;23.198;2022-09-09T04:02:02;5.07;;;2.38;;
34505;SDS011;20748;42.632;23.198;2022-09-09T04:04:36;4.50;;;2.83;;
34505;SDS011;20748;42.632;23.198;2022-09-09T04:07:08;7.80;;;3.90;;
34505;SDS011;20748;42.632;23.198;2022-09-09T04:09:41;5.22;;;3.22;;
34505;SDS011;20748;42.632;23.198;2022-09-09T04:12:13;4.60;;;2.53;;
34505;SDS011;20748;42.632;23.198;2022-09-09T04:14:46;6.15;;;3.13;;
34505;SDS011;20748;42.632;23.198;2022-09-09T04:17:19;7.07;;;3.25;;
34505;SDS011;20748;42.632;23.198;2022-09-09T04:19:52;4.30;;;3.03;;
34505;SDS011;20748;42.632;23.198;2022-09-09T04:22:24;4.90;;;3.17;;
34505;SDS011;20748;42.632;23.198;2022-09-09T04:24:56;5.45;;;3.42;;
34505;SDS011;20748;42.632;23.198;2022-09-09T04:27:29;4.88;;;3.25;;
34505;SDS011;20748;42.632;23.198;2022-09-09T04:30:02;4.47;;;2.80;;
34505;SDS011;20748;42.632;23.198;2022-09-09T04:32:36;4.60;;;2.83;;
34505;SDS011;20748;42.632;23.198;2022-09-09T04:35:10;7.93;;;3.50;;
34505;SDS011;20748;42.632;23.198;2022-09-09T04:37:42;4.28;;;2.85;;
34505;SDS011;20748;42.632;23.198;2022-09-09T04:40:15;5.07;;;2.40;;
34505;SDS011;20748;42.632;23.198;2022-09-09T04:42:48;7.47;;;3.40;;
34505;SDS011;20748;42.632;23.198;2022-09-09T04:45:21;4.97;;;3.08;;
34505;SDS011;20748;42.632;23.198;2022-09-09T04:47:53;5.63;;;4.50;;
34505;SDS011;20748;42.632;23.198;2022-09-09T04:50:27;4.22;;;2.85;;
34505;SDS011;20748;42.632;23.198;2022-09-09T04:53:03;3.90;;;2.70;;
34505;SDS011;20748;42.632;23.198;2022-09-09T04:55:37;5.05;;;3.45;;
34505;SDS011;20748;42.632;23.198;2022-09-09T04:58:10;4.90;;;3.13;;
34505;SDS011;20748;42.632;23.198;2022-09-09T05:00:43;5.13;;;3.15;;
34505;SDS011;20748;42.632;23.198;2022-09-09T05:03:15;4.55;;;2.70;;
34505;SDS011;20748;42.632;23.198;2022-09-09T05:05:49;4.40;;;3.05;;
34505;SDS011;20748;42.632;23.198;2022-09-09T05:08:21;3.83;;;2.72;;
34505;SDS011;20748;42.632;23.198;2022-09-09T05:10:54;5.82;;;3.78;;
34505;SDS011;20748;42.632;23.198;2022-09-09T05:13:26;6.43;;;3.67;;
34505;SDS011;20748;42.632;23.198;2022-09-09T05:15:59;6.93;;;4.28;;
34505;SDS011;20748;42.632;23.198;2022-09-09T05:18:31;5.03;;;3.35;;
34505;SDS011;20748;42.632;23.198;2022-09-09T05:21:05;5.53;;;3.03;;
34505;SDS011;20748;42.632;23.198;2022-09-09T05:23:37;7.28;;;4.38;;
34505;SDS011;20748;42.632;23.198;2022-09-09T05:26:12;5.68;;;3.63;;
34505;SDS011;20748;42.632;23.198;2022-09-09T05:28:50;5.25;;;3.08;;
34505;SDS011;20748;42.632;23.198;2022-09-09T05:31:22;6.63;;;3.75;;
34505;SDS011;20748;42.632;23.198;2022-09-09T05:33:58;5.35;;;3.83;;
34505;SDS011;20748;42.632;23.198;2022-09-09T05:36:31;4.78;;;3.08;;
34505;SDS011;20748;42.632;23.198;2022-09-09T05:39:04;5.47;;;3.50;;
34505;SDS011;20748;42.632;23.198;2022-09-09T05:41:37;5.10;;;2.72;;
34505;SDS011;20748;42.632;23.198;2022-09-09T05:44:10;7.03;;;3.53;;
34505;SDS011;20748;42.632;23.198;2022-09-09T05:46:44;5.18;;;3.25;;
34505;SDS011;20748;42.632;23.198;2022-09-09T05:49:17;4.88;;;3.58;;
34505;SDS011;20748;42.632;23.198;2022-09-09T05:51:50;5.35;;;3.13;;
34505;SDS011;20748;42.632;23.198;2022-09-09T05:54:24;4.93;;;3.25;;
34505;SDS011;20748;42.632;23.198;2022-09-09T05:56:59;4.97;;;3.58;;
34505;SDS011;20748;42.632;23.198;2022-09-09T05:59:31;5.28;;;2.85;;
34505;SDS011;20748;42.632;23.198;2022-09-09T06:02:04;5.93;;;3.58;;
34505;SDS011;20748;42.632;23.198;2022-09-09T06:04:40;6.72;;;3.67;;
34505;SDS011;20748;42.632;23.198;2022-09-09T06:07:13;5.22;;;3.22;;
34505;SDS011;20748;42.632;23.198;2022-09-09T06:09:46;5.90;;;3.78;;
34505;SDS011;20748;42.632;23.198;2022-09-09T06:12:18;5.10;;;3.40;;
34505;SDS011;20748;42.632;23.198;2022-09-09T06:14:52;7.75;;;3.55;;
34505;SDS011;20748;42.632;23.198;2022-09-09T06:17:24;6.10;;;3.75;;
34505;SDS011;20748;42.632;23.198;2022-09-09T06:19:57;6.10;;;3.70;;
34505;SDS011;20748;42.632;23.198;2022-09-09T06:22:30;6.25;;;4.05;;
34505;SDS011;20748;42.632;23.198;2022-09-09T06:25:03;6.85;;;3.85;;
34505;SDS011;20748;42.632;23.198;2022-09-09T06:27:36;4.25;;;3.15;;
34505;SDS011;20748;42.632;23.198;2022-09-09T06:30:09;6.90;;;3.72;;
34505;SDS011;20748;42.632;23.198;2022-09-09T06:32:42;4.40;;;2.90;;
34505;SDS011;20748;42.632;23.198;2022-09-09T06:35:15;4.60;;;2.95;;
34505;SDS011;20748;42.632;23.198;2022-09-09T06:37:48;6.32;;;4.07;;
34505;SDS011;20748;42.632;23.198;2022-09-09T06:40:22;8.00;;;3.13;;
34505;SDS011;20748;42.632;23.198;2022-09-09T06:42:54;5.80;;;3.58;;
34505;SDS011;20748;42.632;23.198;2022-09-09T06:45:43;5.10;;;3.67;;
34505;SDS011;20748;42.632;23.198;2022-09-09T06:48:16;5.60;;;3.40;;
34505;SDS011;20748;42.632;23.198;2022-09-09T06:50:49;5.10;;;3.30;;
34505;SDS011;20748;42.632;23.198;2022-09-09T06:53:22;4.60;;;2.85;;
34505;SDS011;20748;42.632;23.198;2022-09-09T06:55:55;5.88;;;3.70;;
34505;SDS011;20748;42.632;23.198;2022-09-09T06:58:27;6.32;;;3.83;;
34505;SDS011;20748;42.632;23.198;2022-09-09T07:01:02;5.18;;;2.72;;
34505;SDS011;20748;42.632;23.198;2022-09-09T07:03:36;5.50;;;3.22;;
34505;SDS011;20748;42.632;23.198;2022-09-09T07:06:12;4.03;;;2.38;;
34505;SDS011;20748;42.632;23.198;2022-09-09T07:11:31;4.68;;;2.97;;
34505;SDS011;20748;42.632;23.198;2022-09-09T07:14:05;4.38;;;2.72;;
34505;SDS011;20748;42.632;23.198;2022-09-09T07:16:38;3.83;;;2.63;;
34505;SDS011;20748;42.632;23.198;2022-09-09T07:19:12;5.40;;;3.13;;
34505;SDS011;20748;42.632;23.198;2022-09-09T07:21:46;4.38;;;3.17;;
34505;SDS011;20748;42.632;23.198;2022-09-09T07:24:23;4.68;;;3.08;;
34505;SDS011;20748;42.632;23.198;2022-09-09T07:26:56;3.47;;;2.60;;
34505;SDS011;20748;42.632;23.198;2022-09-09T07:29:28;4.85;;;2.97;;
34505;SDS011;20748;42.632;23.198;2022-09-09T07:32:02;5.57;;;2.80;;
34505;SDS011;20748;42.632;23.198;2022-09-09T07:34:39;3.95;;;2.67;;
34505;SDS011;20748;42.632;23.198;2022-09-09T07:37:12;3.55;;;2.20;;
34505;SDS011;20748;42.632;23.198;2022-09-09T07:39:48;3.85;;;2.55;;
34505;SDS011;20748;42.632;23.198;2022-09-09T07:42:22;5.57;;;2.17;;
34505;SDS011;20748;42.632;23.198;2022-09-09T07:44:54;4.38;;;2.33;;
34505;SDS011;20748;42.632;23.198;2022-09-09T07:47:27;4.00;;;2.67;;
34505;SDS011;20748;42.632;23.198;2022-09-09T07:49:59;4.50;;;2.95;;
34505;SDS011;20748;42.632;23.198;2022-09-09T07:52:35;3.45;;;2.45;;
34505;SDS011;20748;42.632;23.198;2022-09-09T07:55:11;4.70;;;2.50;;
34505;SDS011;20748;42.632;23.198;2022-09-09T07:57:43;5.43;;;2.88;;
34505;SDS011;20748;42.632;23.198;2022-09-09T08:00:16;7.18;;;3.08;;
34505;SDS011;20748;42.632;23.198;2022-09-09T08:02:54;3.45;;;2.20;;
34505;SDS011;20748;42.632;23.198;2022-09-09T08:05:27;3.95;;;2.53;;
34505;SDS011;20748;42.632;23.198;2022-09-09T08:08:00;3.95;;;2.63;;
34505;SDS011;20748;42.632;23.198;2022-09-09T08:10:35;3.70;;;2.20;;
34505;SDS011;20748;42.632;23.198;2022-09-09T08:13:08;4.43;;;2.80;;
34505;SDS011;20748;42.632;23.198;2022-09-09T08:15:50;3.83;;;2.67;;
34505;SDS011;20748;42.632;23.198;2022-09-09T08:18:23;5.25;;;2.83;;
34505;SDS011;20748;42.632;23.198;2022-09-09T08:20:55;3.90;;;2.45;;
34505;SDS011;20748;42.632;23.198;2022-09-09T08:23:28;4.45;;;3.08;;
34505;SDS011;20748;42.632;23.198;2022-09-09T08:26:10;3.92;;;2.20;;
34505;SDS011;20748;42.632;23.198;2022-09-09T08:28:43;5.32;;;2.50;;
34505;SDS011;20748;42.632;23.198;2022-09-09T08:31:16;5.43;;;2.30;;
34505;SDS011;20748;42.632;23.198;2022-09-09T08:33:50;5.55;;;2.90;;
34505;SDS011;20748;42.632;23.198;2022-09-09T08:36:26;3.55;;;2.03;;
34505;SDS011;20748;42.632;23.198;2022-09-09T08:39:00;3.25;;;2.15;;
34505;SDS011;20748;42.632;23.198;2022-09-09T08:41:41;5.30;;;2.85;;
34505;SDS011;20748;42.632;23.198;2022-09-09T08:44:29;4.35;;;2.53;;
34505;SDS011;20748;42.632;23.198;2022-09-09T08:47:11;3.75;;;2.47;;
34505;SDS011;20748;42.632;23.198;2022-09-09T08:49:58;3.92;;;3.17;;
34505;SDS011;20748;42.632;23.198;2022-09-09T08:52:41;5.55;;;3.05;;
34505;SDS011;20748;42.632;23.198;2022-09-09T08:55:28;4.13;;;2.58;;
34505;SDS011;20748;42.632;23.198;2022-09-09T08:58:11;5.15;;;3.15;;
34505;SDS011;20748;42.632;23.198;2022-09-09T09:04:06;4.35;;;2.75;;
34505;SDS011;20748;42.632;23.198;2022-09-09T09:06:49;3.28;;;2.58;;
34505;SDS011;20748;42.632;23.198;2022-09-09T09:09:31;4.32;;;2.53;;
34505;SDS011;20748;42.632;23.198;2022-09-09T09:12:15;6.30;;;3.38;;
34505;SDS011;20748;42.632;23.198;2022-09-09T09:14:51;3.67;;;2.75;;
34505;SDS011;20748;42.632;23.198;2022-09-09T09:17:25;4.15;;;2.60;;
34505;SDS011;20748;42.632;23.198;2022-09-09T09:20:02;6.65;;;3.95;;
34505;SDS011;20748;42.632;23.198;2022-09-09T09:22:39;4.05;;;2.67;;
34505;SDS011;20748;42.632;23.198;2022-09-09T09:25:22;4.80;;;3.05;;
34505;SDS011;20748;42.632;23.198;2022-09-09T09:27:57;4.30;;;2.58;;
34505;SDS011;20748;42.632;23.198;2022-09-09T09:30:35;3.40;;;2.45;;
34505;SDS011;20748;42.632;23.198;2022-09-09T09:33:14;5.88;;;2.92;;
34505;SDS011;20748;42.632;23.198;2022-09-09T09:35:53;3.97;;;3.00;;
34505;SDS011;20748;42.632;23.198;2022-09-09T09:38:27;3.35;;;2.80;;
34505;SDS011;20748;42.632;23.198;2022-09-09T09:41:30;4.63;;;2.97;;
34505;SDS011;20748;42.632;23.198;2022-09-09T09:44:04;6.63;;;3.05;;
34505;SDS011;20748;42.632;23.198;2022-09-09T09:46:40;4.57;;;2.70;;
34505;SDS011;20748;42.632;23.198;2022-09-09T09:49:16;5.05;;;2.95;;
34505;SDS011;20748;42.632;23.198;2022-09-09T09:51:49;4.20;;;2.70;;
34505;SDS011;20748;42.632;23.198;2022-09-09T09:54:25;6.20;;;2.70;;
34505;SDS011;20748;42.632;23.198;2022-09-09T09:57:08;4.57;;;3.35;;
34505;SDS011;20748;42.632;23.198;2022-09-09T09:59:42;7.97;;;4.13;;
34505;SDS011;20748;42.632;23.198;2022-09-09T10:02:24;5.82;;;3.42;;
34505;SDS011;20748;42.632;23.198;2022-09-09T10:05:05;8.88;;;3.45;;
34505;SDS011;20748;42.632;23.198;2022-09-09T10:07:57;5.18;;;3.40;;
34505;SDS011;20748;42.632;23.198;2022-09-09T10:10:36;5.05;;;3.42;;
34505;SDS011;20748;42.632;23.198;2022-09-09T10:13:20;6.50;;;3.22;;
34505;SDS011;20748;42.632;23.198;2022-09-09T10:16:02;4.38;;;3.28;;
34505;SDS011;20748;42.632;23.198;2022-09-09T10:18:49;5.40;;;3.13;;
34505;SDS011;20748;42.632;23.198;2022-09-09T10:21:40;4.82;;;3.60;;
34505;SDS011;20748;42.632;23.198;2022-09-09T10:24:32;5.28;;;3.33;;
34505;SDS011;20748;42.632;23.198;2022-09-09T10:27:18;5.85;;;3.80;;
34505;SDS011;20748;42.632;23.198;2022-09-09T10:29:58;5.72;;;3.92;;
34505;SDS011;20748;42.632;23.198;2022-09-09T10:32:46;5.40;;;3.45;;
34505;SDS011;20748;42.632;23.198;2022-09-09T10:35:26;7.80;;;4.32;;
34505;SDS011;20748;42.632;23.198;2022-09-09T10:38:15;6.13;;;3.40;;
34505;SDS011;20748;42.632;23.198;2022-09-09T10:40:59;4.55;;;3.50;;
34505;SDS011;20748;42.632;23.198;2022-09-09T10:43:49;5.93;;;3.60;;
34505;SDS011;20748;42.632;23.198;2022-09-09T10:46:46;4.05;;;3.00;;
34505;SDS011;20748;42.632;23.198;2022-09-09T10:49:38;6.38;;;3.78;;
34505;SDS011;20748;42.632;23.198;2022-09-09T10:52:26;6.63;;;3.38;;
34505;SDS011;20748;42.632;23.198;2022-09-09T10:55:07;5.13;;;3.30;;
34505;SDS011;20748;42.632;23.198;2022-09-09T10:57:46;6.07;;;4.10;;
34505;SDS011;20748;42.632;23.198;2022-09-09T11:00:20;5.90;;;4.03;;
34505;SDS011;20748;42.632;23.198;2022-09-09T11:02:55;5.15;;;3.78;;
34505;SDS011;20748;42.632;23.198;2022-09-09T11:05:29;5.95;;;4.18;;
34505;SDS011;20748;42.632;23.198;2022-09-09T11:08:10;4.38;;;2.90;;
34505;SDS011;20748;42.632;23.198;2022-09-09T11:10:48;4.53;;;2.90;;
34505;SDS011;20748;42.632;23.198;2022-09-09T11:13:33;5.53;;;3.42;;
34505;SDS011;20748;42.632;23.198;2022-09-09T11:16:12;6.78;;;3.63;;
34505;SDS011;20748;42.632;23.198;2022-09-09T11:18:51;5.28;;;3.17;;
34505;SDS011;20748;42.632;23.198;2022-09-09T11:21:30;5.22;;;3.67;;
34505;SDS011;20748;42.632;23.198;2022-09-09T11:24:08;4.78;;;3.30;;
34505;SDS011;20748;42.632;23.198;2022-09-09T11:26:46;5.03;;;3.75;;
34505;SDS011;20748;42.632;23.198;2022-09-09T11:29:50;4.88;;;3.63;;
34505;SDS011;20748;42.632;23.198;2022-09-09T11:33:09;4.38;;;3.20;;
34505;SDS011;20748;42.632;23.198;2022-09-09T11:36:16;6.45;;;3.47;;
34505;SDS011;20748;42.632;23.198;2022-09-09T11:39:06;5.85;;;3.58;;
34505;SDS011;20748;42.632;23.198;2022-09-09T11:42:05;7.78;;;4.10;;
34505;SDS011;20748;42.632;23.198;2022-09-09T11:44:39;6.18;;;3.75;;
34505;SDS011;20748;42.632;23.198;2022-09-09T11:47:21;5.15;;;3.90;;
34505;SDS011;20748;42.632;23.198;2022-09-09T11:50:07;7.30;;;4.93;;
34505;SDS011;20748;42.632;23.198;2022-09-09T11:56:05;3.58;;;2.97;;
34505;SDS011;20748;42.632;23.198;2022-09-09T11:58:41;4.70;;;3.47;;
34505;SDS011;20748;42.632;23.198;2022-09-09T12:01:26;4.28;;;2.47;;
34505;SDS011;20748;42.632;23.198;2022-09-09T12:04:16;4.15;;;3.08;;
34505;SDS011;20748;42.632;23.198;2022-09-09T12:07:05;5.50;;;3.03;;
34505;SDS011;20748;42.632;23.198;2022-09-09T12:09:59;7.47;;;2.83;;
34505;SDS011;20748;42.632;23.198;2022-09-09T12:12:37;6.40;;;3.55;;
34505;SDS011;20748;42.632;23.198;2022-09-09T12:15:20;5.55;;;3.28;;
34505;SDS011;20748;42.632;23.198;2022-09-09T12:17:59;5.05;;;2.65;;
34505;SDS011;20748;42.632;23.198;2022-09-09T12:20:35;5.90;;;3.08;;
34505;SDS011;20748;42.632;23.198;2022-09-09T12:26:07;3.78;;;2.47;;
34505;SDS011;20748;42.632;23.198;2022-09-09T12:29:03;7.05;;;2.60;;
34505;SDS011;20748;42.632;23.198;2022-09-09T12:31:44;5.72;;;2.92;;
34505;SDS011;20748;42.632;23.198;2022-09-09T12:34:27;4.28;;;2.53;;
34505;SDS011;20748;42.632;23.198;2022-09-09T12:37:13;2.97;;;2.10;;
34505;SDS011;20748;42.632;23.198;2022-09-09T12:39:50;3.95;;;2.95;;
34505;SDS011;20748;42.632;23.198;2022-09-09T12:42:27;3.25;;;2.20;;
34505;SDS011;20748;42.632;23.198;2022-09-09T12:45:00;4.28;;;2.22;;
34505;SDS011;20748;42.632;23.198;2022-09-09T12:47:38;3.78;;;2.35;;
34505;SDS011;20748;42.632;23.198;2022-09-09T12:50:15;4.75;;;3.50;;
34505;SDS011;20748;42.632;23.198;2022-09-09T12:52:50;4.90;;;2.67;;
34505;SDS011;20748;42.632;23.198;2022-09-09T12:55:27;5.35;;;2.88;;
34505;SDS011;20748;42.632;23.198;2022-09-09T12:58:02;4.97;;;2.80;;
34505;SDS011;20748;42.632;23.198;2022-09-09T13:00:38;3.50;;;2.55;;
34505;SDS011;20748;42.632;23.198;2022-09-09T13:03:23;6.45;;;2.58;;
34505;SDS011;20748;42.632;23.198;2022-09-09T13:05:57;3.78;;;2.20;;
34505;SDS011;20748;42.632;23.198;2022-09-09T13:08:31;4.65;;;2.70;;
34505;SDS011;20748;42.632;23.198;2022-09-09T13:11:04;5.28;;;2.85;;
34505;SDS011;20748;42.632;23.198;2022-09-09T13:13:42;5.30;;;2.63;;
34505;SDS011;20748;42.632;23.198;2022-09-09T13:16:22;4.28;;;2.63;;
34505;SDS011;20748;42.632;23.198;2022-09-09T13:18:58;3.30;;;2.22;;
34505;SDS011;20748;42.632;23.198;2022-09-09T13:21:33;4.55;;;2.38;;
34505;SDS011;20748;42.632;23.198;2022-09-09T13:24:19;5.47;;;2.60;;
34505;SDS011;20748;42.632;23.198;2022-09-09T13:26:59;4.88;;;2.50;;
34505;SDS011;20748;42.632;23.198;2022-09-09T13:29:33;4.25;;;2.80;;
34505;SDS011;20748;42.632;23.198;2022-09-09T13:32:12;5.03;;;2.60;;
34505;SDS011;20748;42.632;23.198;2022-09-09T13:34:50;5.43;;;2.55;;
34505;SDS011;20748;42.632;23.198;2022-09-09T13:37:26;6.57;;;3.88;;
34505;SDS011;20748;42.632;23.198;2022-09-09T13:40:03;3.83;;;2.60;;
34505;SDS011;20748;42.632;23.198;2022-09-09T13:42:38;6.75;;;3.45;;
34505;SDS011;20748;42.632;23.198;2022-09-09T13:45:15;4.35;;;2.83;;
34505;SDS011;20748;42.632;23.198;2022-09-09T13:47:52;4.18;;;3.10;;
34505;SDS011;20748;42.632;23.198;2022-09-09T13:50:27;6.15;;;3.20;;
34505;SDS011;20748;42.632;23.198;2022-09-09T13:53:00;4.03;;;2.83;;
34505;SDS011;20748;42.632;23.198;2022-09-09T13:55:32;5.05;;;3.05;;
34505;SDS011;20748;42.632;23.198;2022-09-09T13:58:05;3.15;;;2.30;;
34505;SDS011;20748;42.632;23.198;2022-09-09T14:00:37;5.40;;;2.78;;
34505;SDS011;20748;42.632;23.198;2022-09-09T14:03:11;3.80;;;2.42;;
34505;SDS011;20748;42.632;23.198;2022-09-09T14:05:45;6.22;;;2.30;;
34505;SDS011;20748;42.632;23.198;2022-09-09T14:08:25;4.30;;;2.35;;
34505;SDS011;20748;42.632;23.198;2022-09-09T14:10:58;3.13;;;2.33;;
34505;SDS011;20748;42.632;23.198;2022-09-09T14:13:30;4.32;;;2.95;;
34505;SDS011;20748;42.632;23.198;2022-09-09T14:16:03;3.40;;;2.28;;
34505;SDS011;20748;42.632;23.198;2022-09-09T14:18:36;5.32;;;2.90;;
34505;SDS011;20748;42.632;23.198;2022-09-09T14:21:10;3.03;;;1.95;;
34505;SDS011;20748;42.632;23.198;2022-09-09T14:23:42;4.78;;;1.70;;
34505;SDS011;20748;42.632;23.198;2022-09-09T14:26:15;3.95;;;2.50;;
34505;SDS011;20748;42.632;23.198;2022-09-09T14:28:47;3.58;;;2.30;;
34505;SDS011;20748;42.632;23.198;2022-09-09T14:31:29;4.97;;;2.90;;
34505;SDS011;20748;42.632;23.198;2022-09-09T14:34:02;3.55;;;2.28;;
34505;SDS011;20748;42.632;23.198;2022-09-09T14:36:34;3.80;;;2.28;;
34505;SDS011;20748;42.632;23.198;2022-09-09T14:39:07;6.57;;;3.05;;
34505;SDS011;20748;42.632;23.198;2022-09-09T14:41:39;3.50;;;2.20;;
34505;SDS011;20748;42.632;23.198;2022-09-09T14:44:11;4.05;;;2.38;;
34505;SDS011;20748;42.632;23.198;2022-09-09T14:46:44;3.03;;;2.25;;
34505;SDS011;20748;42.632;23.198;2022-09-09T14:49:17;5.47;;;2.42;;
34505;SDS011;20748;42.632;23.198;2022-09-09T14:51:49;2.92;;;2.38;;
34505;SDS011;20748;42.632;23.198;2022-09-09T14:54:21;5.07;;;2.70;;
34505;SDS011;20748;42.632;23.198;2022-09-09T14:56:54;7.40;;;3.33;;
34505;SDS011;20748;42.632;23.198;2022-09-09T14:59:28;4.03;;;2.30;;
34505;SDS011;20748;42.632;23.198;2022-09-09T15:02:00;4.05;;;2.28;;
34505;SDS011;20748;42.632;23.198;2022-09-09T15:04:36;4.60;;;2.47;;
34505;SDS011;20748;42.632;23.198;2022-09-09T15:07:08;5.28;;;2.10;;
34505;SDS011;20748;42.632;23.198;2022-09-09T15:09:42;4.47;;;2.13;;
34505;SDS011;20748;42.632;23.198;2022-09-09T15:12:14;4.78;;;2.47;;
34505;SDS011;20748;42.632;23.198;2022-09-09T15:14:47;4.63;;;2.83;;
34505;SDS011;20748;42.632;23.198;2022-09-09T15:17:19;4.97;;;2.65;;
34505;SDS011;20748;42.632;23.198;2022-09-09T15:19:53;2.72;;;2.08;;
34505;SDS011;20748;42.632;23.198;2022-09-09T15:22:26;4.13;;;2.85;;
34505;SDS011;20748;42.632;23.198;2022-09-09T15:24:58;4.25;;;2.55;;
34505;SDS011;20748;42.632;23.198;2022-09-09T15:27:31;4.53;;;2.65;;
34505;SDS011;20748;42.632;23.198;2022-09-09T15:30:03;3.92;;;2.30;;
34505;SDS011;20748;42.632;23.198;2022-09-09T15:32:36;4.10;;;2.72;;
34505;SDS011;20748;42.632;23.198;2022-09-09T15:35:10;6.82;;;2.40;;
34505;SDS011;20748;42.632;23.198;2022-09-09T15:37:42;4.30;;;2.90;;
34505;SDS011;20748;42.632;23.198;2022-09-09T15:40:15;4.53;;;2.50;;
34505;SDS011;20748;42.632;23.198;2022-09-09T15:42:47;4.55;;;2.78;;
34505;SDS011;20748;42.632;23.198;2022-09-09T15:45:20;5.13;;;3.10;;
34505;SDS011;20748;42.632;23.198;2022-09-09T15:47:53;4.95;;;2.67;;
34505;SDS011;20748;42.632;23.198;2022-09-09T15:50:26;4.40;;;2.80;;
34505;SDS011;20748;42.632;23.198;2022-09-09T15:52:59;3.92;;;2.67;;